Time;durP1;ratioP1;P1;durP2;ratioP2;P2;SDS_P1;SDS_P2;PMS_P1;PMS_P2;Temp;Humidity;BMP_temperature;BMP_pressure;BME280_temperature;BME280_humidity;BME280_pressure;Samples;Min_cycle;Max_cycle;Signal;HPM_P1;HPM_P2
2022/01/31 00:01:37;;;;;;;5.30;1.85;;;2.80;99.90;;;;;;10382766;28;20543;-61
2022/01/31 00:06:38;;;;;;;12.88;1.92;;;2.80;99.90;;;;;;10388089;28;20073;-62
2022/01/31 00:11:42;;;;;;;7.82;1.60;;;2.70;99.90;;;;;;10388883;28;20050;-62
2022/01/31 00:16:43;;;;;;;13.45;2.67;;;2.80;99.90;;;;;;10387903;28;20057;-62
2022/01/31 00:21:45;;;;;;;12.68;1.70;;;2.70;99.90;;;;;;10391836;28;20123;-62
2022/01/31 00:26:47;;;;;;;14.43;2.03;;;2.70;99.90;;;;;;10375165;28;20775;-61
2022/01/31 00:31:48;;;;;;;9.63;1.58;;;2.60;99.90;;;;;;10386545;28;20108;-61
2022/01/31 00:36:51;;;;;;;8.60;1.75;;;2.60;99.90;;;;;;10385841;28;20042;-61
2022/01/31 00:41:52;;;;;;;14.57;2.25;;;2.60;99.90;;;;;;10388843;28;20483;-62
2022/01/31 00:46:59;;;;;;;10.88;1.75;;;2.60;99.90;;;;;;10388041;28;20053;-62
2022/01/31 00:52:03;;;;;;;5.18;1.40;;;2.50;99.90;;;;;;10384005;28;20053;-61
2022/01/31 00:57:05;;;;;;;4.40;1.15;;;2.60;99.90;;;;;;10388272;28;20499;-62
2022/01/31 01:02:07;;;;;;;8.63;1.60;;;2.70;99.90;;;;;;10386791;28;20134;-62
2022/01/31 01:07:08;;;;;;;11.00;1.70;;;2.70;99.90;;;;;;10384400;28;20053;-61
2022/01/31 01:12:12;;;;;;;12.30;1.70;;;2.80;99.90;;;;;;10382213;28;20064;-62
2022/01/31 01:17:13;;;;;;;11.68;1.65;;;2.80;99.90;;;;;;10386369;28;20512;-62
2022/01/31 01:22:15;;;;;;;8.38;2.38;;;2.60;99.90;;;;;;10378801;28;20164;-61
2022/01/31 01:27:20;;;;;;;11.45;1.90;;;2.40;99.90;;;;;;10387106;28;20033;-62
2022/01/31 01:32:24;;;;;;;9.73;1.75;;;2.30;99.90;;;;;;10384317;28;20045;-61
2022/01/31 01:37:26;;;;;;;8.70;1.73;;;2.20;99.90;;;;;;10384648;28;20107;-62
2022/01/31 01:42:27;;;;;;;7.50;1.50;;;2.20;99.90;;;;;;10380146;28;20048;-61
2022/01/31 01:47:29;;;;;;;11.63;1.77;;;2.20;99.90;;;;;;10386246;28;20049;-61
2022/01/31 01:52:31;;;;;;;13.30;2.00;;;2.20;99.90;;;;;;10383735;28;20111;-61
2022/01/31 01:57:32;;;;;;;9.57;1.55;;;2.20;99.90;;;;;;10384794;28;20069;-61
2022/01/31 02:02:35;;;;;;;10.73;1.38;;;2.20;99.90;;;;;;10377919;28;20049;-61
2022/01/31 02:07:37;;;;;;;11.75;1.10;;;2.20;99.90;;;;;;10381189;28;20131;-61
2022/01/31 02:12:39;;;;;;;10.85;1.00;;;2.20;99.90;;;;;;10382600;28;20771;-62
2022/01/31 02:17:41;;;;;;;12.85;1.00;;;2.20;99.90;;;;;;10378191;28;20084;-62
2022/01/31 02:22:43;;;;;;;8.93;0.90;;;2.30;99.90;;;;;;10378691;28;20076;-61
2022/01/31 02:27:45;;;;;;;8.23;0.80;;;2.30;99.90;;;;;;10388948;28;20146;-62
2022/01/31 02:32:46;;;;;;;3.95;1.10;;;2.30;99.90;;;;;;10382184;28;20056;-60
2022/01/31 02:37:48;;;;;;;11.73;1.13;;;2.30;99.90;;;;;;10385313;28;20044;-59
2022/01/31 02:42:53;;;;;;;19.98;1.77;;;2.40;99.90;;;;;;10380500;28;20111;-60
2022/01/31 02:47:58;;;;;;;4.32;1.48;;;2.30;99.90;;;;;;10378985;28;20400;-60
2022/01/31 02:53:11;;;;;;;6.82;0.70;;;2.40;99.90;;;;;;10375151;28;20080;-61
2022/01/31 02:58:14;;;;;;;12.63;2.08;;;2.40;99.90;;;;;;10383338;28;20072;-61
2022/01/31 03:03:16;;;;;;;7.85;1.15;;;2.40;99.90;;;;;;10387381;28;20077;-60
2022/01/31 03:08:18;;;;;;;7.38;1.10;;;2.40;99.90;;;;;;10380691;28;20041;-61
2022/01/31 03:13:20;;;;;;;12.50;1.85;;;2.40;99.90;;;;;;10380651;28;20095;-61
2022/01/31 03:18:21;;;;;;;7.07;1.20;;;2.50;99.90;;;;;;10381932;28;20064;-61
2022/01/31 03:23:23;;;;;;;6.10;1.45;;;2.50;99.90;;;;;;10384042;28;20053;-62
2022/01/31 03:28:25;;;;;;;9.23;1.27;;;2.50;99.90;;;;;;10385537;28;20141;-62
2022/01/31 03:33:26;;;;;;;8.75;1.65;;;2.50;99.90;;;;;;10388441;28;20057;-61
2022/01/31 03:38:28;;;;;;;4.93;1.00;;;2.50;99.90;;;;;;10393509;28;20069;-61
2022/01/31 03:43:30;;;;;;;14.40;1.45;;;2.40;99.90;;;;;;10381116;28;20135;-63
2022/01/31 03:48:32;;;;;;;6.03;1.52;;;2.40;99.90;;;;;;10386995;28;20495;-61
2022/01/31 03:53:34;;;;;;;7.03;1.73;;;2.50;99.90;;;;;;10387347;28;20048;-61
2022/01/31 03:58:36;;;;;;;7.10;1.52;;;2.50;99.90;;;;;;10384581;28;20041;-61
2022/01/31 04:03:38;;;;;;;14.48;1.55;;;2.60;99.90;;;;;;10387191;28;20052;-61
2022/01/31 04:08:40;;;;;;;7.30;1.45;;;2.70;99.90;;;;;;10382106;28;20052;-61
2022/01/31 04:13:42;;;;;;;13.90;1.67;;;2.70;99.90;;;;;;10388464;28;20818;-61
2022/01/31 04:18:43;;;;;;;9.30;1.38;;;2.80;99.90;;;;;;10387908;28;20139;-61
2022/01/31 04:23:46;;;;;;;5.38;1.33;;;2.90;99.90;;;;;;10385561;28;20069;-61
2022/01/31 04:28:51;;;;;;;11.80;1.55;;;2.90;99.90;;;;;;10393262;28;20163;-61
2022/01/31 04:33:54;;;;;;;6.28;1.55;;;2.90;99.90;;;;;;10381685;28;20050;-61
2022/01/31 04:38:55;;;;;;;6.07;1.13;;;3.00;99.90;;;;;;10390749;28;20112;-61
2022/01/31 04:44:03;;;;;;;1.80;0.75;;;3.00;99.90;;;;;;10389513;28;20077;-60
2022/01/31 04:49:04;;;;;;;13.25;1.70;;;2.90;99.90;;;;;;10382825;28;20136;-61
2022/01/31 04:54:06;;;;;;;6.20;1.08;;;2.90;99.90;;;;;;10385706;28;20068;-61
2022/01/31 04:59:09;;;;;;;9.65;2.28;;;2.70;99.90;;;;;;10386224;28;20694;-61
2022/01/31 05:04:10;;;;;;;6.97;1.75;;;2.50;99.90;;;;;;10384377;28;20060;-61
2022/01/31 05:09:12;;;;;;;15.63;2.83;;;2.10;99.90;;;;;;10381272;28;20057;-60
2022/01/31 05:14:16;;;;;;;12.60;1.60;;;2.00;99.90;;;;;;10383798;28;20103;-61
2022/01/31 05:19:17;;;;;;;7.30;1.23;;;1.80;99.90;;;;;;10384744;28;20127;-61
2022/01/31 05:24:19;;;;;;;13.07;2.10;;;1.70;99.90;;;;;;10383385;28;20069;-61
2022/01/31 05:29:22;;;;;;;9.57;2.20;;;1.70;99.90;;;;;;10379559;28;20292;-60
2022/01/31 05:34:24;;;;;;;18.90;1.88;;;1.70;99.90;;;;;;10380150;28;20085;-61
2022/01/31 05:39:26;;;;;;;6.43;1.45;;;1.70;99.90;;;;;;10377942;28;20287;-61
2022/01/31 05:44:28;;;;;;;11.13;1.52;;;1.80;99.90;;;;;;10387801;28;20123;-63
2022/01/31 05:49:29;;;;;;;4.88;1.38;;;1.80;99.90;;;;;;10384430;28;20056;-63
2022/01/31 05:54:34;;;;;;;14.45;2.55;;;1.90;99.90;;;;;;10384494;28;20723;-62
2022/01/31 05:59:38;;;;;;;7.78;2.00;;;1.90;99.90;;;;;;10382605;28;20121;-62
2022/01/31 06:04:40;;;;;;;8.02;1.65;;;2.00;99.90;;;;;;10381627;28;20127;-62
2022/01/31 06:09:41;;;;;;;11.18;2.22;;;2.00;99.90;;;;;;10389281;28;20049;-62
2022/01/31 06:14:43;;;;;;;5.22;2.38;;;2.10;99.90;;;;;;10379030;28;20072;-62
2022/01/31 06:19:45;;;;;;;7.93;2.50;;;2.10;99.90;;;;;;10376225;28;20260;-62
2022/01/31 06:24:47;;;;;;;8.90;2.08;;;2.20;99.90;;;;;;10380224;28;20041;-62
2022/01/31 06:29:48;;;;;;;9.95;3.35;;;2.30;99.90;;;;;;10378950;28;20077;-62
2022/01/31 06:34:50;;;;;;;9.30;2.53;;;2.40;99.90;;;;;;10379830;28;20050;-62
2022/01/31 06:39:52;;;;;;;12.93;2.35;;;2.50;99.90;;;;;;10373561;28;20080;-62
2022/01/31 06:44:53;;;;;;;19.52;2.55;;;2.50;99.90;;;;;;10373180;28;20953;-62
2022/01/31 06:49:55;;;;;;;10.18;1.88;;;2.60;99.90;;;;;;10377512;28;20049;-62
2022/01/31 06:55:01;;;;;;;3.40;1.33;;;2.70;99.90;;;;;;10378771;28;20049;-62
2022/01/31 07:00:06;;;;;;;10.23;2.05;;;2.80;99.90;;;;;;10375823;28;20570;-64
2022/01/31 07:05:08;;;;;;;10.32;1.90;;;2.90;99.90;;;;;;10374627;28;20057;-64
2022/01/31 07:10:11;;;;;;;9.95;1.50;;;2.90;99.90;;;;;;10372981;28;20053;-63
2022/01/31 07:15:17;;;;;;;5.32;1.55;;;3.00;99.90;;;;;;10374281;28;20046;-63
2022/01/31 07:20:23;;;;;;;11.25;2.05;;;3.10;99.90;;;;;;10382128;28;20061;-63
2022/01/31 07:25:37;;;;;;;6.22;1.58;;;3.20;99.90;;;;;;10376926;28;20049;-63
2022/01/31 07:30:40;;;;;;;6.28;1.27;;;3.30;99.90;;;;;;10375119;28;20103;-63
2022/01/31 07:35:43;;;;;;;9.15;1.35;;;3.40;99.90;;;;;;10368100;28;20042;-63
2022/01/31 07:40:45;;;;;;;3.58;0.70;;;3.50;99.90;;;;;;10393392;28;20095;-63
2022/01/31 07:45:47;;;;;;;2.92;0.75;;;3.50;99.90;;;;;;10377936;28;20041;-64
2022/01/31 07:50:48;;;;;;;12.15;0.88;;;3.70;99.90;;;;;;10374836;28;20527;-64
2022/01/31 07:55:50;;;;;;;3.70;0.90;;;3.70;99.90;;;;;;10373531;28;20041;-63
2022/01/31 08:00:52;;;;;;;3.30;0.70;;;3.80;99.90;;;;;;10378354;28;20163;-64
2022/01/31 08:05:54;;;;;;;4.22;0.75;;;3.80;99.90;;;;;;10360578;28;20591;-65
2022/01/31 08:10:57;;;;;;;3.45;0.50;;;3.90;99.90;;;;;;10386074;28;20107;-64
2022/01/31 08:16:09;;;;;;;1.40;0.50;;;3.90;99.90;;;;;;10382053;28;20056;-64
2022/01/31 08:21:13;;;;;;;7.63;0.50;;;4.00;99.90;;;;;;10380651;28;20041;-64
2022/01/31 08:26:16;;;;;;;5.00;0.75;;;4.00;99.90;;;;;;10387753;28;20468;-65
2022/01/31 08:31:38;;;;;;;27.83;5.63;;;4.00;99.90;;;;;;10380550;28;20504;-65
2022/01/31 08:36:42;;;;;;;4.30;1.02;;;4.10;99.90;;;;;;10377815;28;20046;-66
2022/01/31 08:41:47;;;;;;;1.50;0.45;;;4.10;99.90;;;;;;10366748;28;20041;-65
2022/01/31 08:46:50;;;;;;;1.38;0.40;;;4.20;99.90;;;;;;10375868;28;20041;-65
2022/01/31 08:51:52;;;;;;;1.42;0.70;;;4.20;99.90;;;;;;10381920;28;20053;-65
2022/01/31 08:56:54;;;;;;;2.15;0.77;;;4.20;99.90;;;;;;10382853;28;20065;-65
2022/01/31 09:02:06;;;;;;;0.75;0.30;;;4.20;99.90;;;;;;10380424;28;20041;-65
2022/01/31 09:07:08;;;;;;;1.17;0.40;;;4.30;99.90;;;;;;10379583;28;20053;-65
2022/01/31 09:12:11;;;;;;;4.35;0.60;;;4.30;99.90;;;;;;10381957;28;20065;-65
2022/01/31 09:17:13;;;;;;;0.65;0.40;;;4.30;99.90;;;;;;10383066;28;20141;-65
2022/01/31 09:22:15;;;;;;;1.20;0.50;;;4.40;99.90;;;;;;10380387;28;20045;-65
2022/01/31 09:27:17;;;;;;;0.85;0.47;;;4.40;99.90;;;;;;10376994;28;20056;-65
2022/01/31 09:32:23;;;;;;;1.05;0.50;;;4.50;99.90;;;;;;10390782;28;20132;-65
2022/01/31 09:37:25;;;;;;;2.47;0.30;;;4.60;99.90;;;;;;10361367;28;20053;-65
2022/01/31 09:42:33;;;;;;;1.23;0.30;;;4.70;99.90;;;;;;10380820;28;20569;-65
2022/01/31 09:52:56;;;;;;;1.10;0.30;;;4.80;99.90;;;;;;10379135;28;20049;-65
2022/01/31 09:57:58;;;;;;;0.93;0.30;;;5.00;99.90;;;;;;10380770;28;20050;-64
2022/01/31 10:03:05;;;;;;;1.42;0.20;;;5.00;99.90;;;;;;10385626;28;20049;-64
2022/01/31 10:08:16;;;;;;;0.22;0.20;;;5.10;99.90;;;;;;10374781;28;20050;-64
2022/01/31 10:19:09;;;;;;;0.50;0.10;;;5.20;99.90;;;;;;10380243;28;20091;-64
2022/01/31 10:24:16;;;;;;;2.78;0.10;;;5.30;99.90;;;;;;10377932;28;20037;-64
2022/01/31 10:29:21;;;;;;;0.00;0.00;;;5.30;99.90;;;;;;10377577;28;20076;-64
2022/01/31 10:34:25;;;;;;;0.10;0.10;;;5.40;99.90;;;;;;10390110;28;20423;-64
2022/01/31 10:55:55;;;;;;;2.08;0.10;;;5.50;99.90;;;;;;10387661;28;20053;-64
2022/01/31 11:01:14;;;;;;;0.68;0.10;;;5.40;99.90;;;;;;10378010;28;20049;-64
2022/01/31 11:06:19;;;;;;;0.17;0.00;;;5.30;99.90;;;;;;10379657;28;20111;-65
2022/01/31 11:11:21;;;;;;;0.03;0.03;;;5.30;99.90;;;;;;10392155;28;20045;-64
2022/01/31 11:16:24;;;;;;;0.40;0.00;;;5.20;99.90;;;;;;10377769;28;20124;-65
2022/01/31 11:21:29;;;;;;;0.77;0.20;;;5.20;99.90;;;;;;10374688;28;20049;-64
2022/01/31 11:26:37;;;;;;;0.10;0.00;;;5.20;99.90;;;;;;10376795;28;20041;-65
2022/01/31 11:31:43;;;;;;;0.38;0.10;;;5.10;99.90;;;;;;10373559;28;20053;-64
2022/01/31 11:36:44;;;;;;;0.45;0.00;;;5.00;99.90;;;;;;10379861;28;20045;-65
2022/01/31 11:42:09;;;;;;;0.15;0.00;;;5.00;99.90;;;;;;10382209;28;20042;-64
2022/01/31 11:47:12;;;;;;;0.40;0.00;;;4.90;99.90;;;;;;10402915;28;20050;-65
2022/01/31 11:52:15;;;;;;;0.10;0.00;;;4.80;99.90;;;;;;10381656;28;20053;-64
2022/01/31 11:57:23;;;;;;;3.67;0.10;;;4.90;99.90;;;;;;10384056;28;20711;-63
2022/01/31 12:02:30;;;;;;;0.20;0.10;;;4.90;99.90;;;;;;10383559;28;20057;-63
2022/01/31 12:07:39;;;;;;;0.00;0.00;;;4.90;99.90;;;;;;10381902;28;20045;-63
2022/01/31 12:12:48;;;;;;;0.00;0.00;;;5.00;99.90;;;;;;10381255;28;20053;-63
2022/01/31 12:18:18;;;;;;;0.10;0.00;;;5.10;99.90;;;;;;10384697;28;20076;-63
2022/01/31 12:23:23;;;;;;;0.30;0.10;;;5.20;99.90;;;;;;10385856;28;20140;-64
2022/01/31 12:28:37;;;;;;;1.50;0.10;;;5.30;99.90;;;;;;10380833;28;20127;-63
2022/01/31 12:33:44;;;;;;;0.10;0.00;;;5.40;99.90;;;;;;10381976;28;20152;-63
2022/01/31 12:38:46;;;;;;;0.10;0.00;;;5.30;99.90;;;;;;10382885;28;20172;-63
2022/01/31 12:43:51;;;;;;;1.10;0.00;;;5.30;99.90;;;;;;10381049;28;20129;-63
2022/01/31 12:49:08;;;;;;;0.05;0.00;;;5.40;99.90;;;;;;10381815;28;20056;-63
2022/01/31 12:54:21;;;;;;;0.03;0.00;;;5.50;99.90;;;;;;10381567;28;20124;-63
2022/01/31 12:59:23;;;;;;;0.40;0.03;;;5.60;99.90;;;;;;10385185;28;20144;-63
2022/01/31 13:04:29;;;;;;;0.98;0.00;;;5.50;99.90;;;;;;10380952;28;20064;-63
2022/01/31 13:09:37;;;;;;;0.32;0.00;;;5.50;99.90;;;;;;10384002;28;20076;-63
2022/01/31 13:14:51;;;;;;;0.00;0.00;;;5.40;99.90;;;;;;10378122;28;20057;-63
2022/01/31 13:19:55;;;;;;;0.13;0.00;;;5.30;99.90;;;;;;10383500;28;20049;-63
2022/01/31 13:25:04;;;;;;;0.00;0.00;;;5.40;99.90;;;;;;10385777;28;20499;-63
2022/01/31 13:30:30;;;;;;;0.20;0.20;;;5.50;99.90;;;;;;10380348;28;20156;-63
2022/01/31 13:35:33;;;;;;;2.60;0.00;;;5.50;99.90;;;;;;10384783;28;20069;-63
2022/01/31 13:40:45;;;;;;;0.10;0.00;;;5.70;99.90;;;;;;10380769;28;20073;-63
2022/01/31 13:51:00;;;;;;;1.83;0.00;;;5.80;99.90;;;;;;10383451;28;20508;-63
2022/01/31 13:56:03;;;;;;;0.13;0.00;;;5.80;99.90;;;;;;10377985;28;20136;-63
2022/01/31 14:01:06;;;;;;;0.10;0.00;;;5.80;99.90;;;;;;10380997;28;20462;-63
2022/01/31 14:06:11;;;;;;;1.35;0.10;;;5.80;99.90;;;;;;10378529;28;20053;-64
2022/01/31 14:11:25;;;;;;;0.60;0.10;;;5.80;99.90;;;;;;10376355;28;20088;-63
2022/01/31 14:16:33;;;;;;;0.00;0.00;;;5.70;99.90;;;;;;10376590;28;20057;-64
2022/01/31 14:21:37;;;;;;;0.17;0.05;;;5.80;99.90;;;;;;10397040;28;20053;-65
2022/01/31 14:26:42;;;;;;;0.82;0.05;;;5.80;99.90;;;;;;10389370;28;20057;-64
2022/01/31 14:31:51;;;;;;;0.25;0.03;;;5.80;99.90;;;;;;10376855;28;20522;-64
2022/01/31 14:37:11;;;;;;;0.20;0.00;;;5.90;99.90;;;;;;10381621;28;20408;-63
2022/01/31 14:42:41;;;;;;;0.13;0.10;;;5.80;99.90;;;;;;10375730;28;20500;-63
2022/01/31 14:47:50;;;;;;;2.03;0.10;;;5.80;99.90;;;;;;10371225;28;20131;-64
2022/01/31 14:52:52;;;;;;;1.00;0.10;;;5.80;99.90;;;;;;10381895;28;20365;-64
2022/01/31 14:57:54;;;;;;;3.15;0.10;;;5.90;99.90;;;;;;10376403;28;20041;-64
2022/01/31 15:02:56;;;;;;;0.50;0.10;;;5.90;99.90;;;;;;10379781;28;20111;-64
2022/01/31 15:07:58;;;;;;;0.28;0.00;;;5.90;99.90;;;;;;10374906;28;20060;-65
2022/01/31 15:13:02;;;;;;;0.10;0.10;;;5.80;99.90;;;;;;10386246;28;20053;-64
2022/01/31 15:18:04;;;;;;;1.00;0.00;;;5.80;99.90;;;;;;10387662;28;20124;-65
2022/01/31 15:23:06;;;;;;;1.55;0.00;;;5.80;99.90;;;;;;10390798;28;20053;-60
2022/01/31 15:28:08;;;;;;;0.38;0.10;;;5.80;99.90;;;;;;10388820;28;20049;-61
2022/01/31 15:33:11;;;;;;;0.15;0.00;;;5.80;99.90;;;;;;10396517;28;20049;-64
2022/01/31 15:38:14;;;;;;;0.00;0.00;;;5.80;99.90;;;;;;10386419;28;20045;-64
2022/01/31 15:43:16;;;;;;;0.63;0.00;;;5.70;99.90;;;;;;10392906;28;20053;-65
2022/01/31 15:48:18;;;;;;;2.05;0.10;;;5.70;99.90;;;;;;10391471;28;20099;-64
2022/01/31 15:53:20;;;;;;;2.63;0.20;;;5.70;99.90;;;;;;10406583;28;20045;-65
2022/01/31 15:58:22;;;;;;;0.10;0.10;;;5.60;99.90;;;;;;10395656;28;20115;-65
2022/01/31 16:03:24;;;;;;;0.17;0.10;;;5.60;99.90;;;;;;10392493;28;20518;-65
2022/01/31 16:08:26;;;;;;;0.38;0.10;;;5.60;99.90;;;;;;10391966;28;20050;-64
2022/01/31 16:13:28;;;;;;;0.30;0.10;;;5.60;99.90;;;;;;10393196;28;20056;-65
2022/01/31 16:18:30;;;;;;;0.00;0.00;;;5.50;99.90;;;;;;10383304;28;20096;-65
2022/01/31 16:23:32;;;;;;;0.77;0.20;;;5.50;99.90;;;;;;10390626;28;20053;-64
2022/01/31 16:28:36;;;;;;;0.38;0.10;;;5.50;99.90;;;;;;10379676;28;20134;-60
2022/01/31 16:33:38;;;;;;;0.25;0.10;;;5.50;99.90;;;;;;10375358;28;20060;-61
2022/01/31 16:38:40;;;;;;;0.20;0.08;;;5.40;99.90;;;;;;10383218;28;20041;-62
2022/01/31 16:43:42;;;;;;;0.22;0.13;;;5.40;99.90;;;;;;10383088;28;20061;-62
2022/01/31 16:48:44;;;;;;;0.90;0.20;;;5.40;99.90;;;;;;10378779;28;20052;-61
2022/01/31 16:53:45;;;;;;;0.17;0.10;;;5.40;99.90;;;;;;10379114;28;20069;-60
2022/01/31 16:58:47;;;;;;;0.15;0.10;;;5.40;99.90;;;;;;10383807;28;20041;-61
2022/01/31 17:03:49;;;;;;;0.10;0.10;;;5.40;99.90;;;;;;10383208;28;20049;-61
2022/01/31 17:08:51;;;;;;;0.50;0.10;;;5.40;99.90;;;;;;10383070;28;20049;-61
2022/01/31 17:13:53;;;;;;;0.65;0.17;;;5.30;99.90;;;;;;10381404;28;20060;-62
2022/01/31 17:18:55;;;;;;;0.20;0.17;;;5.40;99.90;;;;;;10381333;28;20146;-62
2022/01/31 17:23:57;;;;;;;1.02;0.55;;;5.30;99.90;;;;;;10379202;28;20045;-61
2022/01/31 17:28:59;;;;;;;0.45;0.10;;;5.30;99.90;;;;;;10376754;28;20520;-61
2022/01/31 17:34:00;;;;;;;0.22;0.20;;;5.30;99.90;;;;;;10378115;28;20138;-60
2022/01/31 17:39:04;;;;;;;0.10;0.10;;;5.30;99.90;;;;;;10382221;28;20053;-61
2022/01/31 17:44:46;;;;;;;0.13;0.10;;;5.30;99.90;;;;;;10376965;28;20060;-61
2022/01/31 17:49:37;;;;;;;0.28;0.10;;;5.30;99.90;;;;;;10377383;28;20111;-61
2022/01/31 17:54:39;;;;;;;0.60;0.10;;;5.30;99.90;;;;;;10392731;28;20049;-61
2022/01/31 17:59:41;;;;;;;0.85;0.25;;;5.30;99.90;;;;;;10377564;28;20053;-61
2022/01/31 18:04:43;;;;;;;0.17;0.10;;;5.30;99.90;;;;;;10377242;28;20091;-61
2022/01/31 18:09:44;;;;;;;1.35;0.30;;;5.30;99.90;;;;;;10378949;28;20052;-61
2022/01/31 18:14:46;;;;;;;0.15;0.10;;;5.30;99.90;;;;;;10381745;28;20049;-61
2022/01/31 18:19:48;;;;;;;1.00;0.20;;;5.30;99.90;;;;;;10383426;28;20412;-61
2022/01/31 18:24:55;;;;;;;0.15;0.10;;;5.40;99.90;;;;;;10377451;28;20053;-61
2022/01/31 18:29:57;;;;;;;0.43;0.10;;;5.40;99.90;;;;;;10379362;28;20046;-61
2022/01/31 18:34:59;;;;;;;0.85;0.30;;;5.40;99.90;;;;;;10376383;28;20139;-61
2022/01/31 18:40:01;;;;;;;0.88;0.20;;;5.40;99.90;;;;;;10375215;28;20068;-60
2022/01/31 18:45:03;;;;;;;1.65;0.40;;;5.30;99.90;;;;;;10377769;28;20462;-62
2022/01/31 18:50:08;;;;;;;1.17;0.30;;;5.20;99.90;;;;;;10376304;28;20072;-61
2022/01/31 18:55:10;;;;;;;1.38;0.20;;;5.10;99.90;;;;;;10378800;28;20124;-61
2022/01/31 19:00:13;;;;;;;0.75;0.20;;;5.10;99.90;;;;;;10383983;28;20058;-60
2022/01/31 19:05:14;;;;;;;0.60;0.20;;;5.00;99.90;;;;;;10379330;28;20154;-60
2022/01/31 19:10:22;;;;;;;1.42;0.30;;;5.00;99.90;;;;;;10373309;28;20132;-61
2022/01/31 19:15:42;;;;;;;0.40;0.17;;;5.10;99.90;;;;;;10374268;28;20107;-61
2022/01/31 19:20:46;;;;;;;0.68;0.20;;;5.10;99.90;;;;;;10381551;28;20052;-61
2022/01/31 19:25:48;;;;;;;0.57;0.20;;;5.10;99.90;;;;;;10372719;28;20064;-61
2022/01/31 19:30:52;;;;;;;2.78;0.30;;;5.10;99.90;;;;;;10374047;28;20065;-61
2022/01/31 19:35:54;;;;;;;3.40;0.28;;;5.20;99.90;;;;;;10374813;28;20046;-61
2022/01/31 19:46:22;;;;;;;0.55;0.20;;;5.40;99.90;;;;;;10377512;28;20400;-61
2022/01/31 19:51:31;;;;;;;0.30;0.20;;;5.40;99.90;;;;;;10377761;28;20053;-61
2022/01/31 19:56:33;;;;;;;0.75;0.20;;;5.40;99.90;;;;;;10376691;28;20129;-61
2022/01/31 20:01:34;;;;;;;3.13;0.20;;;5.30;99.90;;;;;;10375779;28;20073;-61
2022/01/31 20:06:37;;;;;;;0.40;0.17;;;5.30;99.90;;;;;;10385652;28;20045;-61
2022/01/31 20:11:39;;;;;;;0.40;0.20;;;5.30;99.90;;;;;;10381920;28;20068;-61
2022/01/31 20:16:40;;;;;;;0.10;0.10;;;5.20;99.90;;;;;;10391800;28;20041;-62
2022/01/31 20:21:42;;;;;;;0.50;0.20;;;5.20;99.90;;;;;;10384153;28;20906;-62
2022/01/31 20:26:44;;;;;;;0.43;0.25;;;5.30;99.90;;;;;;10384658;28;20227;-61
2022/01/31 20:31:46;;;;;;;0.52;0.40;;;5.30;99.90;;;;;;10382121;28;20140;-62
2022/01/31 20:36:50;;;;;;;1.80;0.38;;;5.30;99.90;;;;;;10389490;28;20076;-62
2022/01/31 20:41:52;;;;;;;1.35;0.38;;;5.20;99.90;;;;;;10382365;28;20138;-61
2022/01/31 20:46:56;;;;;;;2.97;0.50;;;5.20;99.90;;;;;;10393724;28;20486;-62
2022/01/31 20:51:58;;;;;;;1.70;0.50;;;5.20;99.90;;;;;;10384452;28;20497;-62
2022/01/31 20:56:59;;;;;;;1.90;0.52;;;5.20;99.90;;;;;;10384931;28;20175;-62
2022/01/31 21:02:01;;;;;;;1.95;0.50;;;5.10;99.90;;;;;;10386654;28;20050;-61
2022/01/31 21:07:04;;;;;;;0.70;0.30;;;5.20;99.90;;;;;;10384148;28;20045;-61
2022/01/31 21:12:06;;;;;;;0.77;0.35;;;5.20;99.90;;;;;;10378512;28;20049;-61
2022/01/31 21:17:07;;;;;;;0.60;0.40;;;5.30;99.90;;;;;;10381710;28;20626;-62
2022/01/31 21:22:09;;;;;;;0.68;0.30;;;5.40;99.90;;;;;;10379788;28;20057;-61
2022/01/31 21:27:11;;;;;;;0.70;0.40;;;5.30;99.90;;;;;;10385046;28;20124;-61
2022/01/31 21:32:13;;;;;;;0.60;0.32;;;5.30;99.90;;;;;;10383687;28;20128;-61
2022/01/31 21:37:14;;;;;;;0.88;0.40;;;5.30;99.90;;;;;;10385796;28;20057;-61
2022/01/31 21:42:17;;;;;;;1.08;0.90;;;5.30;99.90;;;;;;10383730;28;20460;-61
2022/01/31 21:47:19;;;;;;;0.90;0.50;;;5.10;99.90;;;;;;10379004;28;20052;-61
2022/01/31 21:52:20;;;;;;;1.15;0.73;;;5.10;99.90;;;;;;10381303;28;20409;-60
2022/01/31 21:57:25;;;;;;;0.93;0.55;;;5.00;99.90;;;;;;10379381;28;20128;-61
2022/01/31 22:02:28;;;;;;;1.20;0.63;;;4.90;99.90;;;;;;10378575;28;20061;-61
2022/01/31 22:07:31;;;;;;;1.00;0.47;;;4.90;99.90;;;;;;10380526;28;20064;-61
2022/01/31 22:12:33;;;;;;;1.25;0.47;;;4.70;99.90;;;;;;10385739;28;20140;-61
2022/01/31 22:17:35;;;;;;;0.93;0.50;;;4.70;99.90;;;;;;10383654;28;20081;-61
2022/01/31 22:22:40;;;;;;;2.78;0.90;;;4.50;99.90;;;;;;10376709;28;20118;-61
2022/01/31 22:27:41;;;;;;;1.30;0.80;;;4.40;99.90;;;;;;10377307;28;20496;-61
2022/01/31 22:32:44;;;;;;;1.38;0.60;;;4.30;99.90;;;;;;10378638;28;20073;-62
2022/01/31 22:37:46;;;;;;;1.75;0.63;;;4.20;99.90;;;;;;10382789;28;20130;-62
2022/01/31 22:42:48;;;;;;;2.10;0.60;;;4.10;99.90;;;;;;10378397;28;20056;-61
2022/01/31 22:47:50;;;;;;;1.58;0.65;;;4.10;99.90;;;;;;10375920;28;20155;-61
2022/01/31 22:52:51;;;;;;;1.25;0.82;;;4.00;99.90;;;;;;10394327;28;20791;-61
2022/01/31 22:57:53;;;;;;;1.48;0.80;;;4.00;99.90;;;;;;10379405;28;20141;-62
2022/01/31 23:02:54;;;;;;;1.83;0.60;;;3.90;99.90;;;;;;10379083;28;20076;-61
2022/01/31 23:07:56;;;;;;;3.65;0.80;;;3.80;99.90;;;;;;10385787;28;20102;-61
2022/01/31 23:12:58;;;;;;;1.25;0.60;;;3.80;99.90;;;;;;10380071;28;20148;-61
2022/01/31 23:18:11;;;;;;;0.88;0.50;;;3.80;99.90;;;;;;10378676;28;20053;-61
